Time;durP1;ratioP1;P1;durP2;ratioP2;P2;SDS_P1;SDS_P2;PMS_P1;PMS_P2;Temp;Humidity;BMP_temperature;BMP_pressure;BME280_temperature;BME280_humidity;BME280_pressure;Samples;Min_cycle;Max_cycle;Signal;HPM_P1;HPM_P2
2022/04/29 00:00:24;;;;;;;0.90;0.90;;;11.90;99.90;;;;;;5088923;28;20237;-64
2022/04/29 00:02:52;;;;;;;0.90;0.90;;;11.80;99.90;;;;;;5092169;28;20645;-65
2022/04/29 00:05:19;;;;;;;1.17;1.10;;;11.80;99.90;;;;;;5090183;28;20242;-65
2022/04/29 00:07:46;;;;;;;0.80;0.80;;;11.80;99.90;;;;;;5087306;28;20202;-64
2022/04/29 00:10:15;;;;;;;0.90;0.90;;;11.80;99.90;;;;;;5085184;28;20230;-65
2022/04/29 00:12:47;;;;;;;0.90;0.90;;;11.70;99.90;;;;;;5085180;28;20242;-62
2022/04/29 00:15:15;;;;;;;1.13;1.02;;;11.70;99.90;;;;;;5085668;28;20202;-63
2022/04/29 00:17:43;;;;;;;1.00;1.00;;;11.60;99.90;;;;;;5086763;28;20203;-62
2022/04/29 00:20:11;;;;;;;0.90;0.90;;;11.70;99.90;;;;;;5086571;28;20207;-63
2022/04/29 00:22:38;;;;;;;1.00;1.00;;;11.70;99.90;;;;;;5086741;28;20238;-63
2022/04/29 00:25:07;;;;;;;1.05;0.98;;;11.70;99.90;;;;;;5087648;28;20302;-64
2022/04/29 00:27:33;;;;;;;0.90;0.90;;;11.60;99.90;;;;;;5081178;28;20305;-63
2022/04/29 00:30:02;;;;;;;0.88;0.88;;;11.60;99.90;;;;;;5079696;28;20645;-63
2022/04/29 00:32:29;;;;;;;0.98;0.98;;;11.60;99.90;;;;;;5075993;28;20263;-62
2022/04/29 00:34:56;;;;;;;1.00;1.00;;;11.60;99.90;;;;;;5077601;28;20210;-62
2022/04/29 00:37:23;;;;;;;0.95;0.95;;;11.50;99.90;;;;;;5076744;28;20324;-63
2022/04/29 00:39:50;;;;;;;1.00;1.00;;;11.50;99.90;;;;;;5077839;28;20211;-62
2022/04/29 00:42:19;;;;;;;1.08;1.08;;;11.40;99.90;;;;;;5074796;28;20199;-64
2022/04/29 00:44:47;;;;;;;1.00;1.00;;;11.30;99.90;;;;;;5072790;28;20247;-63
2022/04/29 00:47:17;;;;;;;1.05;1.05;;;11.30;99.90;;;;;;5071705;28;20230;-64
2022/04/29 00:49:45;;;;;;;1.33;1.23;;;11.10;99.90;;;;;;5072142;28;20275;-64
2022/04/29 00:52:14;;;;;;;1.00;1.00;;;11.00;99.90;;;;;;5072349;28;20231;-63
2022/04/29 00:54:46;;;;;;;0.90;0.90;;;11.00;99.90;;;;;;5072724;28;20199;-64
2022/04/29 00:57:19;;;;;;;1.02;1.02;;;11.00;99.90;;;;;;5073712;28;20314;-64
2022/04/29 00:59:50;;;;;;;0.90;0.90;;;10.90;99.90;;;;;;5074080;28;20187;-63
2022/04/29 01:02:18;;;;;;;1.15;1.10;;;10.90;99.90;;;;;;5074748;28;20215;-63
2022/04/29 01:04:53;;;;;;;1.10;1.10;;;10.90;99.90;;;;;;5070563;28;20262;-63
2022/04/29 01:07:20;;;;;;;1.00;1.00;;;11.10;99.90;;;;;;5074663;28;20734;-63
2022/04/29 01:09:46;;;;;;;0.90;0.90;;;10.90;99.90;;;;;;5073079;28;20203;-64
2022/04/29 01:12:14;;;;;;;0.88;0.88;;;11.00;99.90;;;;;;5073626;28;20298;-63
2022/04/29 01:14:44;;;;;;;1.10;1.10;;;11.10;99.90;;;;;;5073628;28;20203;-63
2022/04/29 01:17:10;;;;;;;1.08;1.08;;;11.10;99.90;;;;;;5073422;28;20219;-62
2022/04/29 01:19:40;;;;;;;1.00;1.00;;;10.80;99.90;;;;;;5073639;28;20241;-63
2022/04/29 01:22:08;;;;;;;3.03;1.20;;;10.80;99.90;;;;;;5073798;28;20298;-63
2022/04/29 01:24:35;;;;;;;0.88;0.88;;;10.70;99.90;;;;;;5074467;28;20246;-64
2022/04/29 01:27:09;;;;;;;0.80;0.80;;;10.70;99.90;;;;;;5075736;28;20253;-64
2022/04/29 01:29:36;;;;;;;1.00;1.00;;;10.80;99.90;;;;;;5073328;28;20235;-65
2022/04/29 01:32:03;;;;;;;1.00;1.00;;;10.80;99.90;;;;;;5073279;28;20230;-63
2022/04/29 01:34:30;;;;;;;1.00;1.00;;;10.80;99.90;;;;;;5075048;28;20245;-62
2022/04/29 01:36:57;;;;;;;1.00;1.00;;;10.80;99.90;;;;;;5076179;28;20262;-62
2022/04/29 01:39:25;;;;;;;1.00;1.00;;;10.70;99.90;;;;;;5075716;28;20243;-63
2022/04/29 01:41:52;;;;;;;1.00;1.00;;;10.60;99.90;;;;;;5074148;28;20238;-63
2022/04/29 01:44:19;;;;;;;1.10;1.10;;;10.50;99.90;;;;;;5072580;28;20223;-61
2022/04/29 01:46:47;;;;;;;1.00;1.00;;;10.40;99.90;;;;;;5072312;28;20245;-64
2022/04/29 01:49:15;;;;;;;0.88;0.88;;;10.40;99.90;;;;;;5075200;28;20272;-62
2022/04/29 01:51:42;;;;;;;1.10;1.10;;;10.40;99.90;;;;;;5076399;28;20328;-63
2022/04/29 01:54:10;;;;;;;1.02;1.02;;;10.40;99.90;;;;;;5076893;28;20254;-61
2022/04/29 01:56:39;;;;;;;0.90;0.90;;;10.40;99.90;;;;;;5076784;28;20746;-62
2022/04/29 01:59:06;;;;;;;0.90;0.90;;;10.40;99.90;;;;;;5075484;28;20238;-64
2022/04/29 02:01:33;;;;;;;1.05;1.05;;;10.40;99.90;;;;;;5073821;28;20207;-62
2022/04/29 02:04:01;;;;;;;1.13;1.13;;;10.40;99.90;;;;;;5065850;28;20220;-64
2022/04/29 02:06:28;;;;;;;1.05;1.05;;;10.30;99.90;;;;;;5075308;28;20569;-64
2022/04/29 02:08:55;;;;;;;1.00;1.00;;;10.40;99.90;;;;;;5074617;28;20333;-63
2022/04/29 02:11:22;;;;;;;1.00;1.00;;;10.30;99.90;;;;;;5075754;28;20207;-62
2022/04/29 02:13:50;;;;;;;1.50;1.00;;;10.30;99.90;;;;;;5075625;28;20571;-63
2022/04/29 02:16:18;;;;;;;1.00;1.00;;;10.30;99.90;;;;;;5075145;28;20318;-63
2022/04/29 02:18:45;;;;;;;1.00;1.00;;;10.30;99.90;;;;;;5074510;28;20203;-63
2022/04/29 02:21:11;;;;;;;1.00;1.00;;;10.20;99.90;;;;;;5074857;28;20211;-63
2022/04/29 02:23:38;;;;;;;1.23;1.13;;;10.20;99.90;;;;;;5075285;28;20242;-64
2022/04/29 02:26:05;;;;;;;1.00;1.00;;;10.20;99.90;;;;;;5074888;28;20277;-63
2022/04/29 02:28:34;;;;;;;0.90;0.90;;;10.10;99.90;;;;;;5074107;28;20286;-64
2022/04/29 02:31:03;;;;;;;1.00;1.00;;;10.10;99.90;;;;;;5075403;28;20317;-64
2022/04/29 02:33:30;;;;;;;1.00;1.00;;;10.10;99.90;;;;;;5078593;28;20242;-63
2022/04/29 02:35:57;;;;;;;1.00;1.00;;;10.20;99.90;;;;;;5082185;28;20247;-62
2022/04/29 02:38:24;;;;;;;0.90;0.90;;;10.10;99.90;;;;;;5076541;28;20203;-64
2022/04/29 02:40:51;;;;;;;1.10;1.10;;;10.20;99.90;;;;;;5074844;28;20298;-63
2022/04/29 02:43:18;;;;;;;1.00;1.00;;;10.10;99.90;;;;;;5074585;28;20203;-64
2022/04/29 02:45:46;;;;;;;1.00;1.00;;;10.00;99.90;;;;;;5074921;28;20235;-63
2022/04/29 02:48:15;;;;;;;1.00;1.00;;;10.10;99.90;;;;;;5074984;28;20207;-63
2022/04/29 02:50:42;;;;;;;1.08;1.08;;;10.00;99.90;;;;;;5076142;28;20207;-63
2022/04/29 02:53:09;;;;;;;0.90;0.90;;;9.90;99.90;;;;;;5075964;28;20294;-62
2022/04/29 02:55:36;;;;;;;1.20;1.20;;;10.00;99.90;;;;;;5074937;28;20226;-64
2022/04/29 02:58:03;;;;;;;0.90;0.90;;;10.00;99.90;;;;;;5076225;28;20257;-62
2022/04/29 03:00:30;;;;;;;0.95;0.95;;;10.00;99.90;;;;;;5076614;28;20246;-63
2022/04/29 03:02:57;;;;;;;1.15;1.10;;;10.00;99.90;;;;;;5076884;28;20282;-64
2022/04/29 03:05:26;;;;;;;1.17;1.17;;;10.00;99.90;;;;;;5076666;28;20223;-65
2022/04/29 03:07:53;;;;;;;1.00;1.00;;;10.00;99.90;;;;;;5075119;28;20641;-64
2022/04/29 03:10:20;;;;;;;1.20;1.10;;;10.00;99.90;;;;;;5075899;28;20209;-63
2022/04/29 03:12:46;;;;;;;1.10;1.10;;;9.90;99.90;;;;;;5082965;28;20199;-64
2022/04/29 03:15:16;;;;;;;1.00;1.00;;;10.00;99.90;;;;;;5085163;28;20199;-62
2022/04/29 03:20:30;;;;;;;1.00;1.00;;;10.00;99.90;;;;;;5082466;28;20210;-64
2022/04/29 03:22:57;;;;;;;0.95;0.95;;;10.00;99.90;;;;;;5082083;28;20212;-64
2022/04/29 03:25:24;;;;;;;1.10;1.10;;;10.00;99.90;;;;;;5074942;28;20223;-62
2022/04/29 03:27:51;;;;;;;0.93;0.93;;;10.00;99.90;;;;;;5078827;28;20265;-62
2022/04/29 03:30:18;;;;;;;1.02;1.00;;;9.90;99.90;;;;;;5078291;28;20294;-62
2022/04/29 03:32:52;;;;;;;1.02;1.02;;;9.80;99.90;;;;;;5075348;28;20199;-62
2022/04/29 03:35:19;;;;;;;1.20;1.20;;;9.70;99.90;;;;;;5075531;28;20210;-63
2022/04/29 03:37:48;;;;;;;1.10;1.10;;;9.70;99.90;;;;;;5075652;28;20211;-62
2022/04/29 03:40:16;;;;;;;1.10;1.10;;;9.70;99.90;;;;;;5074898;28;20199;-63
2022/04/29 03:42:43;;;;;;;1.00;1.00;;;9.70;99.90;;;;;;5073720;28;20210;-63
2022/04/29 03:45:10;;;;;;;0.95;0.95;;;9.80;99.90;;;;;;5073298;28;20297;-62
2022/04/29 03:47:37;;;;;;;0.97;0.97;;;9.70;99.90;;;;;;5073422;28;20254;-64
2022/04/29 03:50:06;;;;;;;0.93;0.93;;;9.70;99.90;;;;;;5072819;28;20353;-61
2022/04/29 03:52:33;;;;;;;1.05;1.05;;;9.70;99.90;;;;;;5073116;28;20229;-62
2022/04/29 03:55:02;;;;;;;1.10;1.10;;;9.70;99.90;;;;;;5072899;28;20294;-61
2022/04/29 03:57:29;;;;;;;1.00;1.00;;;9.70;99.90;;;;;;5073338;28;20650;-63
2022/04/29 03:59:56;;;;;;;0.82;0.82;;;9.70;99.90;;;;;;5072271;28;20238;-63
2022/04/29 04:02:23;;;;;;;1.10;1.10;;;9.60;99.90;;;;;;5073099;28;20203;-63
2022/04/29 04:04:50;;;;;;;1.00;1.00;;;9.70;99.90;;;;;;5072928;28;20653;-63
2022/04/29 04:07:17;;;;;;;1.23;1.23;;;9.70;99.90;;;;;;5072956;28;20227;-63
2022/04/29 04:09:44;;;;;;;0.82;0.82;;;9.80;99.90;;;;;;5072053;28;20231;-62
2022/04/29 04:12:12;;;;;;;1.00;1.00;;;9.70;99.90;;;;;;5071779;28;20231;-63
2022/04/29 04:14:39;;;;;;;1.23;1.20;;;9.70;99.90;;;;;;5072484;28;20687;-64
2022/04/29 04:17:07;;;;;;;1.08;1.08;;;9.70;99.90;;;;;;5072784;28;20318;-64
2022/04/29 04:19:34;;;;;;;1.00;1.00;;;9.70;99.90;;;;;;5072300;28;20302;-63
2022/04/29 04:22:01;;;;;;;0.90;0.90;;;9.60;99.90;;;;;;5072611;28;20296;-62
2022/04/29 04:24:28;;;;;;;1.30;1.30;;;9.60;99.90;;;;;;5072181;28;20203;-62
2022/04/29 04:26:55;;;;;;;1.10;1.10;;;9.60;99.90;;;;;;5072474;28;20302;-62
2022/04/29 04:29:23;;;;;;;1.10;1.10;;;9.60;99.90;;;;;;5078196;28;20238;-63
2022/04/29 04:31:51;;;;;;;1.40;1.30;;;9.60;99.90;;;;;;5073618;28;20237;-62
2022/04/29 04:37:02;;;;;;;1.00;1.00;;;9.80;99.90;;;;;;5072938;28;20281;-64
2022/04/29 04:39:30;;;;;;;1.00;1.00;;;9.60;99.90;;;;;;5069159;28;20203;-64
2022/04/29 04:41:56;;;;;;;1.17;1.13;;;9.70;99.90;;;;;;5071519;28;20203;-64
2022/04/29 04:44:25;;;;;;;1.20;1.20;;;9.70;99.90;;;;;;5068684;28;20196;-63
2022/04/29 04:46:52;;;;;;;1.17;1.17;;;9.70;99.90;;;;;;5063862;28;20281;-62
2022/04/29 04:49:18;;;;;;;1.10;1.10;;;9.70;99.90;;;;;;5071082;28;20199;-62
2022/04/29 04:51:45;;;;;;;1.00;1.00;;;9.70;99.90;;;;;;5064390;28;20231;-63
2022/04/29 04:54:12;;;;;;;1.00;1.00;;;9.80;99.90;;;;;;5073209;28;20287;-63
2022/04/29 04:56:39;;;;;;;1.38;1.27;;;9.80;99.90;;;;;;5066447;28;20298;-63
2022/04/29 04:59:06;;;;;;;1.50;1.20;;;9.80;99.90;;;;;;5071063;28;20206;-63
2022/04/29 05:01:34;;;;;;;1.10;1.10;;;9.80;99.90;;;;;;5063800;28;20223;-64
2022/04/29 05:04:02;;;;;;;1.30;1.20;;;9.80;99.90;;;;;;5071134;28;20657;-63
2022/04/29 05:06:28;;;;;;;1.25;1.25;;;9.80;99.90;;;;;;5063272;28;20310;-63
2022/04/29 05:08:55;;;;;;;1.30;1.20;;;9.90;99.90;;;;;;5070932;28;20291;-62
2022/04/29 05:11:22;;;;;;;1.00;1.00;;;9.90;99.90;;;;;;5071585;28;20257;-63
2022/04/29 05:13:49;;;;;;;1.13;1.13;;;10.00;99.90;;;;;;5064042;28;20250;-63
2022/04/29 05:16:16;;;;;;;2.63;1.20;;;10.00;99.90;;;;;;5071436;28;20298;-62
2022/04/29 05:18:44;;;;;;;1.15;1.15;;;10.10;99.90;;;;;;5068754;28;20291;-62
2022/04/29 05:21:11;;;;;;;1.00;1.00;;;10.20;99.90;;;;;;5064502;28;20224;-62
2022/04/29 05:23:38;;;;;;;1.00;1.00;;;10.30;99.90;;;;;;5068586;28;20282;-63
2022/04/29 05:26:05;;;;;;;1.10;1.10;;;10.40;99.90;;;;;;5071880;28;20258;-63
2022/04/29 05:28:32;;;;;;;1.10;1.10;;;10.40;99.90;;;;;;5066408;28;20235;-64
2022/04/29 05:31:00;;;;;;;1.30;1.20;;;10.50;99.90;;;;;;5070528;28;20294;-63
2022/04/29 05:33:27;;;;;;;1.10;1.10;;;10.50;99.90;;;;;;5052308;28;20625;-63
2022/04/29 05:35:56;;;;;;;1.17;1.17;;;10.60;99.90;;;;;;5064909;28;20287;-64
2022/04/29 05:38:23;;;;;;;1.00;1.00;;;10.70;99.90;;;;;;5069823;28;20876;-62
2022/04/29 05:43:34;;;;;;;1.40;1.30;;;11.00;99.90;;;;;;5073692;28;20225;-63
2022/04/29 05:46:01;;;;;;;1.38;1.17;;;11.10;99.90;;;;;;5072719;28;20229;-63
2022/04/29 05:48:28;;;;;;;1.75;1.40;;;11.30;99.90;;;;;;5071464;28;20286;-63
2022/04/29 05:50:56;;;;;;;1.20;1.20;;;11.50;99.90;;;;;;5072379;28;20203;-63
2022/04/29 05:53:23;;;;;;;1.20;1.20;;;11.60;99.90;;;;;;5072601;28;20231;-63
2022/04/29 05:55:50;;;;;;;1.20;1.20;;;11.60;99.90;;;;;;5068665;28;20231;-63
2022/04/29 05:58:17;;;;;;;1.40;1.30;;;11.70;99.90;;;;;;5074346;28;20230;-64
2022/04/29 06:00:44;;;;;;;1.98;1.50;;;11.80;99.90;;;;;;5082594;28;20302;-62
2022/04/29 06:03:11;;;;;;;1.10;1.10;;;12.00;99.90;;;;;;5068936;28;20283;-63
2022/04/29 06:05:38;;;;;;;1.27;1.20;;;12.10;99.90;;;;;;5076357;28;20255;-62
2022/04/29 06:08:07;;;;;;;1.15;1.15;;;12.10;99.90;;;;;;5076398;28;20196;-63
2022/04/29 06:10:34;;;;;;;1.45;1.35;;;12.30;99.90;;;;;;5073891;28;20229;-61
2022/04/29 06:13:01;;;;;;;1.20;1.20;;;12.40;99.90;;;;;;5075210;28;20214;-63
2022/04/29 06:15:28;;;;;;;1.08;1.08;;;12.40;99.90;;;;;;5074704;28;20657;-65
2022/04/29 06:17:55;;;;;;;1.13;1.13;;;12.50;99.90;;;;;;5066820;28;20210;-64
2022/04/29 06:20:22;;;;;;;1.33;1.30;;;12.60;99.90;;;;;;5061204;28;20283;-63
2022/04/29 06:22:49;;;;;;;1.23;1.20;;;12.60;99.90;;;;;;5072255;28;20286;-64
2022/04/29 06:25:18;;;;;;;1.10;1.10;;;12.70;99.90;;;;;;5077409;28;20709;-64
2022/04/29 06:27:45;;;;;;;1.10;1.10;;;12.80;99.90;;;;;;5074058;28;20231;-63
2022/04/29 06:30:13;;;;;;;0.88;0.88;;;12.90;99.90;;;;;;5069746;28;20295;-64
2022/04/29 06:32:40;;;;;;;1.00;1.00;;;13.00;99.90;;;;;;5070871;28;20282;-64
2022/04/29 06:35:08;;;;;;;1.10;1.10;;;13.10;99.90;;;;;;5068573;28;20213;-65
2022/04/29 06:37:36;;;;;;;0.90;0.90;;;13.20;99.90;;;;;;5084043;28;20227;-65
2022/04/29 06:40:03;;;;;;;1.30;1.20;;;13.20;99.90;;;;;;5060368;28;20207;-65
2022/04/29 06:42:32;;;;;;;1.10;1.10;;;13.40;99.90;;;;;;5056447;28;20302;-64
2022/04/29 06:44:59;;;;;;;1.10;1.10;;;13.40;99.90;;;;;;5055348;28;20242;-64
2022/04/29 06:47:26;;;;;;;1.30;1.30;;;13.40;99.90;;;;;;5056453;28;20308;-63
2022/04/29 06:49:53;;;;;;;1.20;1.20;;;13.50;99.90;;;;;;5054580;28;20199;-63
2022/04/29 06:52:20;;;;;;;1.40;1.30;;;13.60;99.90;;;;;;5055193;28;20203;-65
2022/04/29 06:54:46;;;;;;;1.58;1.48;;;13.80;99.90;;;;;;5055168;28;20227;-64
2022/04/29 06:57:13;;;;;;;1.13;1.13;;;13.80;99.90;;;;;;5056033;28;20274;-65
2022/04/29 06:59:41;;;;;;;1.40;1.30;;;13.90;99.90;;;;;;5054534;28;20267;-64
2022/04/29 07:02:08;;;;;;;1.95;1.85;;;13.90;99.90;;;;;;5054657;28;20298;-64
2022/04/29 07:04:35;;;;;;;1.60;1.50;;;14.00;99.90;;;;;;5054525;28;20239;-65
2022/04/29 07:07:03;;;;;;;1.60;1.50;;;14.10;99.90;;;;;;5054048;28;20322;-65
2022/04/29 07:09:30;;;;;;;1.35;1.25;;;14.00;99.90;;;;;;5053380;28;20227;-64
2022/04/29 07:11:57;;;;;;;1.58;1.48;;;14.20;99.90;;;;;;5053558;28;20235;-64
2022/04/29 07:14:24;;;;;;;1.70;1.60;;;14.20;99.90;;;;;;5054234;28;20291;-64
2022/04/29 07:16:55;;;;;;;2.77;1.60;;;14.30;99.90;;;;;;5054015;28;20262;-62
2022/04/29 07:19:21;;;;;;;1.60;1.50;;;14.40;99.90;;;;;;5055054;28;20561;-64
2022/04/29 07:21:48;;;;;;;1.60;1.50;;;14.50;99.90;;;;;;5055541;28;20618;-64
2022/04/29 07:24:15;;;;;;;1.83;1.73;;;14.70;99.90;;;;;;5054306;28;20745;-63
2022/04/29 07:26:42;;;;;;;1.90;1.80;;;14.80;99.90;;;;;;5054549;28;20322;-64
2022/04/29 07:29:09;;;;;;;2.13;1.95;;;14.90;99.90;;;;;;5053326;28;20208;-66
2022/04/29 07:31:36;;;;;;;1.90;1.80;;;15.00;99.90;;;;;;5054121;28;20281;-64
2022/04/29 07:34:04;;;;;;;1.52;1.50;;;15.20;99.90;;;;;;5053765;28;20231;-65
2022/04/29 07:42:00;;;;;;;2.58;1.63;;;15.60;99.90;;;;;;5055314;28;20180;-64
2022/04/29 07:44:27;;;;;;;1.77;1.50;;;15.50;99.90;;;;;;5055671;28;20239;-64
2022/04/29 07:46:54;;;;;;;1.40;1.40;;;15.60;99.90;;;;;;5053978;28;20282;-64
2022/04/29 07:49:22;;;;;;;1.75;1.50;;;15.60;99.90;;;;;;5060804;28;20235;-64
2022/04/29 07:51:49;;;;;;;1.70;1.60;;;15.70;99.90;;;;;;5076181;28;20689;-64
2022/04/29 07:54:16;;;;;;;2.67;2.47;;;15.80;99.90;;;;;;5069776;28;20290;-65
2022/04/29 07:56:43;;;;;;;3.42;3.22;;;15.90;99.90;;;;;;5072565;28;20262;-64
2022/04/29 07:59:10;;;;;;;4.10;3.80;;;15.80;99.90;;;;;;5069029;28;20239;-65
2022/04/29 08:01:40;;;;;;;4.30;4.00;;;15.90;99.90;;;;;;5072484;28;20253;-65
2022/04/29 08:04:07;;;;;;;3.15;3.03;;;16.00;99.90;;;;;;5064789;28;20309;-64
2022/04/29 08:06:35;;;;;;;2.78;2.67;;;16.10;99.90;;;;;;5073708;28;20227;-65
2022/04/29 08:09:02;;;;;;;3.40;3.10;;;16.20;99.90;;;;;;5072961;28;20298;-64
2022/04/29 08:11:31;;;;;;;3.00;2.80;;;16.20;99.90;;;;;;5073676;28;20207;-63
2022/04/29 08:13:58;;;;;;;2.60;2.40;;;16.30;99.90;;;;;;5073741;28;20207;-63
2022/04/29 08:16:25;;;;;;;2.08;1.98;;;16.10;99.90;;;;;;5073652;28;20219;-64
2022/04/29 08:18:53;;;;;;;2.10;2.00;;;16.10;99.90;;;;;;5079552;28;20199;-63
2022/04/29 08:21:20;;;;;;;2.42;2.22;;;16.10;99.90;;;;;;5075700;28;20704;-64
2022/04/29 08:23:48;;;;;;;2.55;2.17;;;16.10;99.90;;;;;;5072793;28;20203;-63
2022/04/29 08:26:15;;;;;;;1.48;1.48;;;16.20;99.90;;;;;;5052215;28;20354;-64
2022/04/29 08:28:42;;;;;;;1.50;1.40;;;16.50;99.90;;;;;;5065534;28;20202;-64
2022/04/29 08:31:09;;;;;;;2.55;1.60;;;16.80;99.90;;;;;;5072731;28;20693;-63
2022/04/29 08:33:36;;;;;;;1.30;1.30;;;17.10;99.90;;;;;;5073674;28;20242;-64
2022/04/29 08:36:04;;;;;;;0.95;0.95;;;17.30;99.90;;;;;;5072478;28;20258;-65
2022/04/29 08:38:32;;;;;;;1.25;1.02;;;17.70;99.90;;;;;;5070754;28;20210;-63
2022/04/29 08:41:01;;;;;;;1.08;1.08;;;17.90;99.90;;;;;;5072186;28;20235;-64
2022/04/29 08:43:28;;;;;;;1.27;1.10;;;18.10;99.90;;;;;;5068842;28;20381;-65
2022/04/29 08:45:56;;;;;;;0.98;0.98;;;18.40;99.90;;;;;;5051984;28;20259;-64
2022/04/29 08:48:23;;;;;;;1.33;1.30;;;18.50;99.90;;;;;;5051385;28;20294;-65
2022/04/29 08:50:50;;;;;;;1.05;1.05;;;18.70;99.90;;;;;;5051641;28;20208;-64
2022/04/29 08:53:17;;;;;;;1.08;1.08;;;18.80;99.90;;;;;;5052412;28;20662;-66
2022/04/29 08:58:41;;;;;;;0.90;0.90;;;19.00;99.90;;;;;;5051612;28;20253;-64
2022/04/29 09:01:09;;;;;;;0.90;0.90;;;19.00;99.90;;;;;;5051776;28;20239;-65
2022/04/29 09:03:37;;;;;;;1.10;1.10;;;19.20;99.90;;;;;;5051436;28;20257;-63
2022/04/29 09:06:06;;;;;;;0.80;0.80;;;19.30;99.90;;;;;;5051439;28;20265;-65
2022/04/29 09:08:39;;;;;;;1.00;1.00;;;19.30;99.90;;;;;;5051123;28;20211;-64
2022/04/29 09:11:07;;;;;;;1.00;1.00;;;19.30;99.90;;;;;;5051040;28;20184;-64
2022/04/29 09:13:37;;;;;;;1.33;1.23;;;19.40;99.90;;;;;;5051917;28;20291;-64
2022/04/29 09:16:06;;;;;;;0.95;0.95;;;19.40;99.90;;;;;;5051481;28;20283;-66
2022/04/29 09:18:37;;;;;;;0.98;0.98;;;19.30;99.90;;;;;;5050563;28;20295;-65
2022/04/29 09:21:09;;;;;;;0.90;0.90;;;19.40;99.90;;;;;;5049989;28;20212;-66
2022/04/29 09:23:37;;;;;;;1.20;1.17;;;19.40;99.90;;;;;;5051184;28;20626;-63
2022/04/29 09:26:07;;;;;;;1.10;1.10;;;19.30;99.90;;;;;;5051333;28;20558;-64
2022/04/29 09:28:36;;;;;;;1.27;1.02;;;19.40;99.90;;;;;;5055060;28;20210;-64
2022/04/29 09:31:04;;;;;;;0.90;0.90;;;19.50;99.90;;;;;;5061934;28;20246;-63
2022/04/29 09:33:35;;;;;;;1.13;1.00;;;19.80;99.90;;;;;;5070493;28;20289;-63
2022/04/29 09:36:02;;;;;;;1.08;0.95;;;20.10;99.90;;;;;;5069454;28;20257;-65
2022/04/29 09:41:25;;;;;;;0.80;0.80;;;20.50;99.90;;;;;;5009021;28;20715;-63
2022/04/29 09:43:54;;;;;;;0.80;0.80;;;20.70;99.90;;;;;;5046958;28;20199;-66
2022/04/29 09:46:22;;;;;;;0.95;0.90;;;20.70;99.90;;;;;;5070974;28;20589;-65
2022/04/29 09:49:00;;;;;;;0.70;0.70;;;20.90;99.90;;;;;;5070463;28;20203;-65
2022/04/29 09:51:47;;;;;;;0.80;0.80;;;20.90;99.90;;;;;;5071081;28;20203;-64
2022/04/29 09:54:21;;;;;;;0.80;0.80;;;20.90;99.10;;;;;;5070661;28;20187;-64
2022/04/29 09:57:02;;;;;;;1.30;1.20;;;21.00;99.90;;;;;;5071499;28;20254;-64
2022/04/29 09:59:33;;;;;;;0.90;0.90;;;20.90;99.90;;;;;;5057138;28;20200;-65
2022/04/29 10:02:01;;;;;;;1.10;1.10;;;21.00;99.90;;;;;;5062218;28;20262;-63
2022/04/29 10:04:31;;;;;;;1.58;1.08;;;21.10;99.90;;;;;;5053775;28;20734;-65
2022/04/29 10:06:59;;;;;;;0.90;0.90;;;21.10;99.90;;;;;;5050045;28;20227;-64
2022/04/29 10:09:30;;;;;;;0.90;0.90;;;21.10;99.70;;;;;;5069696;28;20207;-64
2022/04/29 10:11:59;;;;;;;0.95;0.80;;;21.10;99.20;;;;;;5078544;28;20192;-63
2022/04/29 10:14:28;;;;;;;1.00;1.00;;;21.00;99.10;;;;;;5076946;28;20301;-62
2022/04/29 10:22:34;;;;;;;0.80;0.80;;;21.30;98.50;;;;;;5074195;28;20207;-64
2022/04/29 10:25:05;;;;;;;0.90;0.90;;;21.40;98.00;;;;;;5076495;28;20571;-64
2022/04/29 10:27:33;;;;;;;0.85;0.85;;;21.60;98.50;;;;;;5062418;28;20227;-64
2022/04/29 10:30:00;;;;;;;0.77;0.77;;;21.80;97.90;;;;;;5055784;28;20227;-65
2022/04/29 10:32:29;;;;;;;0.80;0.80;;;22.00;97.70;;;;;;5055671;28;20223;-64
2022/04/29 10:34:56;;;;;;;0.80;0.80;;;22.20;99.90;;;;;;5055649;28;20200;-65
2022/04/29 10:37:36;;;;;;;0.77;0.77;;;22.20;97.50;;;;;;5053891;28;20224;-63
2022/04/29 10:40:11;;;;;;;0.93;0.93;;;22.20;96.60;;;;;;5054259;28;20200;-65
2022/04/29 10:43:04;;;;;;;0.75;0.70;;;22.30;96.20;;;;;;5054365;28;20247;-64
2022/04/29 10:45:31;;;;;;;0.70;0.70;;;22.40;96.50;;;;;;5054656;28;20269;-64
2022/04/29 10:47:59;;;;;;;0.80;0.80;;;22.60;96.90;;;;;;5054499;28;20255;-66
2022/04/29 10:50:44;;;;;;;1.00;1.00;;;22.80;97.30;;;;;;5055590;28;20271;-65
2022/04/29 10:53:12;;;;;;;0.90;0.90;;;23.00;95.10;;;;;;5054959;28;20290;-64
2022/04/29 10:55:39;;;;;;;1.08;1.00;;;23.10;95.70;;;;;;5054604;28;20234;-64
2022/04/29 10:58:19;;;;;;;0.77;0.77;;;23.20;95.20;;;;;;5053749;28;20295;-66
2022/04/29 11:00:55;;;;;;;0.82;0.82;;;23.00;93.40;;;;;;5056869;28;20188;-64
2022/04/29 11:03:41;;;;;;;0.80;0.80;;;22.80;94.80;;;;;;5057564;28;20192;-65
2022/04/29 11:06:10;;;;;;;0.65;0.65;;;22.80;94.90;;;;;;5058925;28;20232;-65
2022/04/29 11:08:37;;;;;;;0.60;0.60;;;22.60;96.00;;;;;;5060417;28;20315;-66
2022/04/29 11:11:05;;;;;;;0.80;0.80;;;22.50;96.50;;;;;;5061990;28;20239;-63
2022/04/29 11:13:35;;;;;;;0.75;0.75;;;22.40;95.90;;;;;;5068440;28;20645;-64
2022/04/29 11:16:14;;;;;;;0.98;0.98;;;22.40;95.90;;;;;;5069830;28;20223;-67
2022/04/29 11:18:44;;;;;;;1.10;1.02;;;22.30;95.00;;;;;;5075365;28;20184;-65
2022/04/29 11:26:45;;;;;;;0.95;0.95;;;22.60;95.00;;;;;;5074578;28;20225;-64
2022/04/29 11:29:12;;;;;;;0.82;0.82;;;22.70;96.80;;;;;;5073113;28;20313;-65
2022/04/29 11:31:40;;;;;;;0.95;0.95;;;22.40;97.50;;;;;;5074138;28;20284;-66
2022/04/29 11:34:08;;;;;;;0.90;0.90;;;22.50;99.00;;;;;;5074128;28;20207;-65
2022/04/29 11:36:36;;;;;;;1.10;1.10;;;22.70;99.90;;;;;;5073547;28;20223;-66
2022/04/29 11:39:09;;;;;;;1.40;1.30;;;22.30;99.90;;;;;;5072618;28;20211;-63
2022/04/29 11:41:35;;;;;;;1.00;0.90;;;22.30;99.90;;;;;;5073136;28;20238;-65
2022/04/29 11:44:03;;;;;;;0.90;0.90;;;22.30;99.90;;;;;;5073459;28;20670;-66
2022/04/29 11:46:31;;;;;;;1.00;1.00;;;22.30;99.90;;;;;;5078294;28;20253;-65
2022/04/29 11:48:59;;;;;;;1.25;0.90;;;22.40;99.80;;;;;;5081355;28;20205;-65
2022/04/29 11:51:28;;;;;;;1.00;1.00;;;22.30;99.80;;;;;;5081498;28;20210;-64
2022/04/29 11:53:57;;;;;;;1.30;1.00;;;22.20;99.90;;;;;;5081092;28;20210;-65
2022/04/29 11:56:32;;;;;;;1.00;1.00;;;22.30;99.90;;;;;;5076861;28;20643;-64
2022/04/29 11:58:59;;;;;;;1.20;1.15;;;22.30;99.90;;;;;;5070933;28;20210;-64
2022/04/29 12:01:28;;;;;;;0.80;0.80;;;22.20;98.90;;;;;;5061005;28;20208;-64
2022/04/29 12:03:55;;;;;;;1.25;1.10;;;22.10;99.00;;;;;;5056446;28;20212;-65
2022/04/29 12:06:22;;;;;;;0.82;0.82;;;22.10;98.40;;;;;;5054192;28;20266;-66
2022/04/29 12:08:50;;;;;;;1.17;1.10;;;22.20;98.30;;;;;;5052344;28;20227;-66
2022/04/29 12:11:24;;;;;;;1.17;1.05;;;22.30;99.00;;;;;;5052371;28;20236;-64
2022/04/29 12:13:51;;;;;;;0.88;0.88;;;22.40;99.40;;;;;;5053660;28;20294;-64
2022/04/29 12:16:18;;;;;;;1.02;1.02;;;22.50;98.70;;;;;;5058511;28;20649;-64
2022/04/29 12:18:46;;;;;;;1.15;1.10;;;22.70;97.70;;;;;;5054111;28;20200;-65
2022/04/29 12:21:20;;;;;;;1.25;1.17;;;22.60;98.60;;;;;;5053472;28;20619;-65
2022/04/29 12:23:47;;;;;;;1.27;1.00;;;22.40;99.10;;;;;;5052562;28;20651;-63
2022/04/29 12:26:15;;;;;;;0.98;0.98;;;22.20;99.30;;;;;;5053500;28;20310;-64
2022/04/29 12:28:43;;;;;;;1.02;1.02;;;22.10;99.50;;;;;;5053097;28;20219;-66
2022/04/29 12:36:51;;;;;;;1.30;1.20;;;21.90;99.90;;;;;;5052317;28;20883;-64
2022/04/29 12:39:24;;;;;;;1.20;1.20;;;21.90;99.90;;;;;;5051661;28;20235;-64
2022/04/29 12:42:05;;;;;;;1.70;1.30;;;21.90;99.90;;;;;;5052704;28;20212;-64
2022/04/29 12:47:33;;;;;;;1.42;1.30;;;21.90;99.90;;;;;;5065435;28;20344;-64
2022/04/29 12:50:23;;;;;;;1.35;1.20;;;22.00;99.90;;;;;;5069018;28;20234;-64
2022/04/29 12:52:55;;;;;;;1.15;1.10;;;22.00;99.90;;;;;;5067842;28;20354;-64
2022/04/29 12:55:22;;;;;;;1.30;1.30;;;21.90;99.90;;;;;;5059291;28;20198;-64
2022/04/29 12:57:50;;;;;;;1.40;1.30;;;21.70;99.90;;;;;;5051423;28;20244;-64
2022/04/29 13:00:26;;;;;;;1.33;1.33;;;21.50;99.90;;;;;;5052878;28;20231;-66
2022/04/29 13:03:05;;;;;;;1.98;1.10;;;21.50;99.90;;;;;;5065795;28;20302;-63
2022/04/29 13:05:32;;;;;;;1.17;1.15;;;21.70;99.90;;;;;;5068119;28;20278;-64
2022/04/29 13:08:00;;;;;;;1.30;1.20;;;21.90;99.90;;;;;;5070775;28;20211;-64
2022/04/29 13:10:27;;;;;;;1.10;1.10;;;22.10;99.90;;;;;;5074275;28;20199;-65
2022/04/29 13:12:55;;;;;;;1.10;1.10;;;22.10;99.90;;;;;;5074097;28;20241;-65
2022/04/29 13:15:24;;;;;;;1.20;1.20;;;22.10;99.80;;;;;;5078678;28;20242;-65
2022/04/29 13:17:51;;;;;;;1.10;1.10;;;22.00;99.90;;;;;;5070033;28;20615;-67
2022/04/29 13:20:18;;;;;;;1.10;1.10;;;21.90;99.90;;;;;;5069738;28;20287;-65
2022/04/29 13:22:44;;;;;;;1.40;1.30;;;22.10;99.90;;;;;;5070616;28;21772;-65
2022/04/29 13:25:11;;;;;;;1.10;1.10;;;21.90;99.70;;;;;;5062867;28;20256;-63
2022/04/29 13:27:38;;;;;;;1.10;1.10;;;21.70;99.80;;;;;;5070358;28;20292;-65
2022/04/29 13:30:08;;;;;;;1.10;1.10;;;21.60;99.90;;;;;;5073125;28;20250;-63
2022/04/29 13:32:35;;;;;;;1.25;1.20;;;21.50;99.90;;;;;;5059656;28;20212;-65